Time;durP1;ratioP1;P1;durP2;ratioP2;P2;SDS_P1;SDS_P2;PMS_P1;PMS_P2;Temp;Humidity;BMP_temperature;BMP_pressure;BME280_temperature;BME280_humidity;BME280_pressure;Samples;Min_cycle;Max_cycle;Signal;HPM_P1;HPM_P2
2023/06/15 00:02:03;;;;;;;8.35;2.97;;;;;;;;;;5084423;28;20098;-65
2023/06/15 00:05:44;;;;;;;5.45;3.28;;;;;;;;;;5087608;28;20047;-65
2023/06/15 00:09:24;;;;;;;9.40;3.75;;;;;;;;;;5080540;28;20431;-64
2023/06/15 00:13:05;;;;;;;6.18;3.55;;;;;;;;;;5081243;28;20056;-63
2023/06/15 00:16:46;;;;;;;8.55;3.90;;;;;;;;;;5086031;28;20051;-64
2023/06/15 00:20:28;;;;;;;8.07;4.10;;;;;;;;;;5083059;28;20038;-64
2023/06/15 00:24:06;;;;;;;11.13;4.53;;;;;;;;;;5082589;28;20338;-61
2023/06/15 00:27:47;;;;;;;8.18;3.78;;;;;;;;;;5084064;28;20048;-63
2023/06/15 00:31:27;;;;;;;9.48;4.10;;;;;;;;;;5082725;28;20506;-62
2023/06/15 00:35:08;;;;;;;6.72;3.60;;;;;;;;;;5083671;28;20048;-68
2023/06/15 00:38:48;;;;;;;7.93;3.75;;;;;;;;;;5085473;28;20468;-62
2023/06/15 00:42:29;;;;;;;6.97;3.53;;;;;;;;;;5083359;28;20050;-64
2023/06/15 00:46:09;;;;;;;7.18;3.70;;;;;;;;;;5085393;28;20418;-63
2023/06/15 00:49:50;;;;;;;5.78;3.22;;;;;;;;;;5081673;28;20205;-65
2023/06/15 00:53:30;;;;;;;8.82;3.85;;;;;;;;;;5081980;28;20052;-61
2023/06/15 00:57:12;;;;;;;11.95;4.72;;;;;;;;;;5082739;28;20429;-63
2023/06/15 01:00:51;;;;;;;8.98;3.75;;;;;;;;;;5078460;28;20119;-62
2023/06/15 01:04:31;;;;;;;7.43;3.75;;;;;;;;;;5084779;28;20229;-62
2023/06/15 01:08:13;;;;;;;10.50;3.97;;;;;;;;;;5086121;28;20280;-63
2023/06/15 01:11:54;;;;;;;8.50;3.80;;;;;;;;;;5086735;28;20456;-64
2023/06/15 01:15:34;;;;;;;8.90;3.58;;;;;;;;;;5087584;28;20059;-63
2023/06/15 01:19:16;;;;;;;5.80;3.72;;;;;;;;;;5085652;28;20051;-65
2023/06/15 01:23:05;;;;;;;8.90;3.80;;;;;;;;;;5085192;28;20036;-64
2023/06/15 01:26:46;;;;;;;10.32;3.88;;;;;;;;;;5086144;28;20055;-63
2023/06/15 01:30:25;;;;;;;7.93;3.72;;;;;;;;;;5082700;28;21522;-63
2023/06/15 01:34:11;;;;;;;9.27;4.28;;;;;;;;;;5086059;28;20044;-65
2023/06/15 01:37:52;;;;;;;6.93;4.38;;;;;;;;;;5087559;28;20040;-65
2023/06/15 01:41:32;;;;;;;11.02;4.47;;;;;;;;;;5082145;28;20040;-65
2023/06/15 01:45:12;;;;;;;12.20;3.88;;;;;;;;;;5082885;28;20083;-64
2023/06/15 01:48:55;;;;;;;12.48;3.58;;;;;;;;;;5083535;28;20403;-63
2023/06/15 01:52:35;;;;;;;7.85;3.72;;;;;;;;;;5078948;28;20048;-64
2023/06/15 01:56:16;;;;;;;9.68;3.58;;;;;;;;;;5080349;28;20051;-65
2023/06/15 01:59:56;;;;;;;10.38;3.40;;;;;;;;;;5087719;28;20101;-63
2023/06/15 02:03:36;;;;;;;8.30;3.28;;;;;;;;;;5078876;28;20370;-64
2023/06/15 02:07:17;;;;;;;8.43;3.85;;;;;;;;;;5083072;28;20102;-62
2023/06/15 02:10:57;;;;;;;6.10;3.38;;;;;;;;;;5082156;28;20048;-63
2023/06/15 02:14:37;;;;;;;6.88;3.45;;;;;;;;;;5080221;28;20138;-63
2023/06/15 02:18:19;;;;;;;7.75;3.47;;;;;;;;;;5074010;28;20080;-62
2023/06/15 02:22:00;;;;;;;9.32;3.85;;;;;;;;;;5080942;28;20050;-62
2023/06/15 02:25:40;;;;;;;8.32;3.83;;;;;;;;;;5086295;28;20048;-63
2023/06/15 02:29:20;;;;;;;7.97;4.20;;;;;;;;;;5086535;28;20401;-66
2023/06/15 02:33:07;;;;;;;10.23;3.33;;;;;;;;;;5079265;28;20040;-65
2023/06/15 02:36:46;;;;;;;8.25;3.33;;;;;;;;;;5083928;28;20054;-63
2023/06/15 02:40:26;;;;;;;9.73;3.20;;;;;;;;;;5087891;28;20174;-62
2023/06/15 02:44:07;;;;;;;5.80;3.28;;;;;;;;;;5085245;28;20124;-62
2023/06/15 02:47:49;;;;;;;6.32;3.47;;;;;;;;;;5088390;28;20135;-63
2023/06/15 02:51:31;;;;;;;5.07;2.80;;;;;;;;;;5086641;28;20376;-61
2023/06/15 02:55:13;;;;;;;5.80;3.10;;;;;;;;;;5085187;28;20047;-62
2023/06/15 02:58:54;;;;;;;8.75;3.20;;;;;;;;;;5085534;28;20051;-63
2023/06/15 03:02:31;;;;;;;6.68;3.40;;;;;;;;;;5084226;28;20129;-62
2023/06/15 03:06:14;;;;;;;5.10;3.33;;;;;;;;;;5084556;28;20058;-62
2023/06/15 03:09:52;;;;;;;6.38;3.20;;;;;;;;;;5085781;28;21817;-61
2023/06/15 03:13:32;;;;;;;5.85;3.13;;;;;;;;;;5078863;28;20059;-62
2023/06/15 03:17:13;;;;;;;7.63;3.30;;;;;;;;;;5079782;28;20968;-62
2023/06/15 03:20:54;;;;;;;7.40;3.25;;;;;;;;;;5083338;28;20436;-62
2023/06/15 03:24:36;;;;;;;9.75;3.05;;;;;;;;;;5087488;28;20496;-60
2023/06/15 03:28:16;;;;;;;6.15;2.80;;;;;;;;;;5087977;28;20050;-62
2023/06/15 03:31:56;;;;;;;3.83;2.70;;;;;;;;;;5082257;28;20036;-63
2023/06/15 03:35:37;;;;;;;5.95;2.65;;;;;;;;;;5085661;28;20055;-63
2023/06/15 03:39:17;;;;;;;6.07;2.97;;;;;;;;;;5089729;28;20525;-61
2023/06/15 03:42:57;;;;;;;5.95;3.05;;;;;;;;;;5083261;28;20062;-62
2023/06/15 03:46:41;;;;;;;7.13;3.33;;;;;;;;;;5084452;28;20666;-62
2023/06/15 03:50:19;;;;;;;4.82;2.90;;;;;;;;;;5086592;28;20086;-63
2023/06/15 03:54:02;;;;;;;10.65;3.28;;;;;;;;;;5087555;28;20514;-63
2023/06/15 03:57:42;;;;;;;7.53;3.30;;;;;;;;;;5086985;28;20051;-61
2023/06/15 04:01:25;;;;;;;10.18;3.92;;;;;;;;;;5078625;28;20100;-62
2023/06/15 04:05:03;;;;;;;7.03;3.30;;;;;;;;;;5087573;28;20047;-63
2023/06/15 04:08:44;;;;;;;9.52;3.47;;;;;;;;;;5080128;28;20117;-63
2023/06/15 04:12:24;;;;;;;6.00;3.10;;;;;;;;;;5087961;28;20506;-63
2023/06/15 04:16:05;;;;;;;5.60;3.35;;;;;;;;;;5080195;28;20048;-63
2023/06/15 04:19:46;;;;;;;5.45;3.42;;;;;;;;;;5085896;28;20113;-61
2023/06/15 04:23:25;;;;;;;9.05;3.20;;;;;;;;;;5085463;28;20052;-63
2023/06/15 04:27:06;;;;;;;9.57;3.03;;;;;;;;;;5087380;28;20457;-61
2023/06/15 04:30:47;;;;;;;10.88;3.25;;;;;;;;;;5081977;28;20089;-63
2023/06/15 04:34:27;;;;;;;6.78;3.85;;;;;;;;;;5083445;28;20403;-63
2023/06/15 04:38:07;;;;;;;7.00;3.58;;;;;;;;;;5081889;28;20118;-63
2023/06/15 04:41:47;;;;;;;9.38;3.58;;;;;;;;;;5082580;28;20047;-62
2023/06/15 04:45:28;;;;;;;7.65;3.45;;;;;;;;;;5085647;28;20043;-63
2023/06/15 04:49:08;;;;;;;7.85;3.65;;;;;;;;;;5081698;28;20467;-63
2023/06/15 04:52:49;;;;;;;9.02;3.55;;;;;;;;;;5088086;28;20040;-62
2023/06/15 04:56:31;;;;;;;8.75;4.05;;;;;;;;;;5077684;28;20055;-66
2023/06/15 05:00:13;;;;;;;6.47;3.60;;;;;;;;;;5069874;28;20929;-62
2023/06/15 05:03:54;;;;;;;9.80;3.95;;;;;;;;;;5079526;28;20055;-64
2023/06/15 05:07:33;;;;;;;6.82;3.72;;;;;;;;;;5077733;28;20516;-62
2023/06/15 05:11:15;;;;;;;9.05;3.55;;;;;;;;;;5080434;28;20040;-64
2023/06/15 05:14:55;;;;;;;8.85;3.67;;;;;;;;;;5076774;28;20902;-66
2023/06/15 05:18:38;;;;;;;11.48;4.30;;;;;;;;;;5087820;28;20185;-66
2023/06/15 05:22:20;;;;;;;10.35;5.22;;;;;;;;;;5082821;28;20458;-67
2023/06/15 05:26:01;;;;;;;13.77;5.70;;;;;;;;;;5076632;28;20500;-69
2023/06/15 05:29:42;;;;;;;14.13;5.70;;;;;;;;;;5082176;28;20068;-66
2023/06/15 05:33:22;;;;;;;37.05;14.63;;;;;;;;;;5080082;28;20047;-67
2023/06/15 05:37:02;;;;;;;39.90;15.85;;;;;;;;;;5079384;28;20048;-68
2023/06/15 05:40:04;;;;;;;34.17;12.63;;;;;;;;;;5076016;28;20040;-67
2023/06/15 05:43:10;;;;;;;36.05;13.45;;;;;;;;;;5082871;28;20051;-66
2023/06/15 05:46:11;;;;;;;25.02;10.50;;;;;;;;;;5079909;28;20071;-64
2023/06/15 05:48:37;;;;;;;27.02;7.93;;;;;;;;;;5081360;28;20048;-67
2023/06/15 05:51:31;;;;;;;24.85;7.68;;;;;;;;;;5074026;28;20040;-65
2023/06/15 05:53:57;;;;;;;19.25;5.90;;;;;;;;;;5067111;28;20205;-64
2023/06/15 05:56:23;;;;;;;20.50;6.88;;;;;;;;;;5080484;28;20055;-66
2023/06/15 05:58:53;;;;;;;23.23;6.70;;;;;;;;;;5072778;28;20508;-67
2023/06/15 06:01:20;;;;;;;18.65;6.13;;;;;;;;;;5086817;28;20087;-68
2023/06/15 06:03:47;;;;;;;15.52;5.72;;;;;;;;;;5080978;28;20052;-66
2023/06/15 06:06:14;;;;;;;20.33;5.82;;;;;;;;;;5085909;28;20488;-65
2023/06/15 06:08:41;;;;;;;15.27;5.38;;;;;;;;;;5083912;28;20071;-66
2023/06/15 06:11:09;;;;;;;17.48;5.25;;;;;;;;;;5082908;28;20043;-67
2023/06/15 06:13:35;;;;;;;14.35;6.03;;;;;;;;;;5085994;28;20376;-66
2023/06/15 06:16:01;;;;;;;14.70;4.50;;;;;;;;;;5083411;28;20055;-66
2023/06/15 06:18:28;;;;;;;14.52;5.43;;;;;;;;;;5078224;28;20052;-69
2023/06/15 06:20:54;;;;;;;13.18;5.22;;;;;;;;;;5079737;28;20048;-66
2023/06/15 06:23:20;;;;;;;22.58;5.35;;;;;;;;;;5079460;28;20047;-67
2023/06/15 06:25:46;;;;;;;16.10;5.13;;;;;;;;;;5079916;28;20084;-66
2023/06/15 06:28:12;;;;;;;12.20;4.95;;;;;;;;;;5074368;28;20052;-65
2023/06/15 06:30:38;;;;;;;13.75;5.15;;;;;;;;;;5086125;28;20044;-66
2023/06/15 06:33:05;;;;;;;13.98;4.93;;;;;;;;;;5085224;28;20048;-68
2023/06/15 06:35:31;;;;;;;16.50;5.32;;;;;;;;;;5075025;28;20064;-67
2023/06/15 06:38:38;;;;;;;15.85;5.45;;;;;;;;;;5083205;28;20036;-70
2023/06/15 06:42:18;;;;;;;15.55;5.10;;;;;;;;;;5080353;28;20143;-71
2023/06/15 06:45:59;;;;;;;18.02;5.72;;;;;;;;;;5079797;28;20109;-72
2023/06/15 06:49:39;;;;;;;23.08;5.95;;;;;;;;;;5079872;28;20074;-72
2023/06/15 06:53:19;;;;;;;19.50;4.93;;;;;;;;;;5084936;28;20102;-71
2023/06/15 06:57:00;;;;;;;13.43;5.63;;;;;;;;;;5077964;28;20040;-73
2023/06/15 07:00:41;;;;;;;18.35;5.35;;;;;;;;;;5082313;28;20052;-74
2023/06/15 07:04:20;;;;;;;17.80;5.60;;;;;;;;;;5080697;28;20499;-73
2023/06/15 07:08:01;;;;;;;15.88;5.80;;;;;;;;;;5087199;28;20040;-70
2023/06/15 07:11:41;;;;;;;15.77;5.55;;;;;;;;;;5084596;28;20131;-72
2023/06/15 07:15:21;;;;;;;13.23;5.20;;;;;;;;;;5079173;28;20056;-71
2023/06/15 07:19:02;;;;;;;9.93;4.97;;;;;;;;;;5086062;28;20055;-70
2023/06/15 07:22:43;;;;;;;15.38;5.43;;;;;;;;;;5074394;28;20044;-70
2023/06/15 07:26:23;;;;;;;11.57;5.47;;;;;;;;;;5079831;28;20055;-71
2023/06/15 07:30:03;;;;;;;10.88;4.85;;;;;;;;;;5079472;28;20227;-70
2023/06/15 07:33:43;;;;;;;8.43;5.25;;;;;;;;;;5084951;28;20527;-71
2023/06/15 07:37:24;;;;;;;8.38;5.00;;;;;;;;;;5082021;28;20051;-70
2023/06/15 07:41:05;;;;;;;12.20;5.55;;;;;;;;;;5078123;28;20124;-71
2023/06/15 07:44:45;;;;;;;8.77;5.00;;;;;;;;;;5081031;28;20127;-70
2023/06/15 07:48:26;;;;;;;13.07;6.95;;;;;;;;;;5081906;28;20401;-72
2023/06/15 07:52:07;;;;;;;11.63;5.78;;;;;;;;;;5086580;28;20039;-71
2023/06/15 07:55:47;;;;;;;12.15;5.60;;;;;;;;;;5079072;28;20547;-72
2023/06/15 07:59:29;;;;;;;13.18;5.32;;;;;;;;;;5081689;28;20067;-73
2023/06/15 08:03:10;;;;;;;11.38;5.25;;;;;;;;;;5084101;28;20139;-71
2023/06/15 08:06:51;;;;;;;9.18;4.75;;;;;;;;;;5085068;28;20068;-71
2023/06/15 08:10:32;;;;;;;10.23;4.38;;;;;;;;;;5082307;28;20488;-69
2023/06/15 08:14:13;;;;;;;10.50;4.70;;;;;;;;;;5083834;28;20134;-69
2023/06/15 08:17:56;;;;;;;8.57;4.43;;;;;;;;;;5084748;28;20055;-68
2023/06/15 08:21:41;;;;;;;8.02;4.75;;;;;;;;;;5085361;28;20191;-68
2023/06/15 08:25:19;;;;;;;8.43;4.65;;;;;;;;;;5081732;28;20051;-68
2023/06/15 08:29:00;;;;;;;10.48;4.82;;;;;;;;;;5083317;28;20598;-68
2023/06/15 08:32:39;;;;;;;9.13;4.80;;;;;;;;;;5081696;28;20040;-72
2023/06/15 08:36:19;;;;;;;13.60;5.00;;;;;;;;;;5082564;28;20352;-71
2023/06/15 08:40:05;;;;;;;11.65;5.82;;;;;;;;;;5079704;28;20105;-73
2023/06/15 08:43:40;;;;;;;7.50;4.32;;;;;;;;;;5081952;28;20047;-73
2023/06/15 08:47:22;;;;;;;10.90;5.10;;;;;;;;;;5079511;28;20064;-71
2023/06/15 08:51:02;;;;;;;17.85;5.00;;;;;;;;;;5081400;28;20082;-73
2023/06/15 08:54:44;;;;;;;9.95;4.82;;;;;;;;;;5082344;28;20051;-76
2023/06/15 08:58:24;;;;;;;8.93;4.63;;;;;;;;;;5083246;28;20072;-73
2023/06/15 09:02:07;;;;;;;8.20;4.93;;;;;;;;;;5082740;28;20054;-74
2023/06/15 09:05:46;;;;;;;7.88;4.38;;;;;;;;;;5081198;28;20076;-73
2023/06/15 09:09:26;;;;;;;11.60;4.65;;;;;;;;;;5083927;28;20452;-72
2023/06/15 09:12:48;;;;;;;8.82;4.55;;;;;;;;;;5084015;28;20071;-74
2023/06/15 09:16:29;;;;;;;6.07;4.20;;;;;;;;;;5087226;28;20043;-71
2023/06/15 09:20:10;;;;;;;9.05;4.47;;;;;;;;;;5086644;28;20040;-73
2023/06/15 09:23:50;;;;;;;8.50;4.30;;;;;;;;;;5079314;28;20048;-69
2023/06/15 09:27:33;;;;;;;8.15;3.95;;;;;;;;;;5079351;28;20115;-70
2023/06/15 09:31:20;;;;;;;14.75;5.32;;;;;;;;;;5080245;28;20044;-71
2023/06/15 09:35:04;;;;;;;11.30;5.05;;;;;;;;;;5083856;28;20133;-70
2023/06/15 09:38:44;;;;;;;8.20;4.30;;;;;;;;;;5073251;28;20063;-70
2023/06/15 09:42:29;;;;;;;5.20;4.00;;;;;;;;;;5079433;28;20044;-71
2023/06/15 09:46:10;;;;;;;8.57;4.20;;;;;;;;;;5076696;28;20047;-71
2023/06/15 09:49:59;;;;;;;6.80;4.45;;;;;;;;;;5082636;28;20052;-71
2023/06/15 09:53:40;;;;;;;10.55;4.32;;;;;;;;;;5081634;28;20054;-71
2023/06/15 09:57:20;;;;;;;7.57;4.10;;;;;;;;;;5086545;28;20740;-72
2023/06/15 10:01:03;;;;;;;5.43;3.85;;;;;;;;;;5079914;28;20463;-71
2023/06/15 10:04:42;;;;;;;6.20;3.80;;;;;;;;;;5075791;28;20079;-72
2023/06/15 10:08:25;;;;;;;8.05;3.60;;;;;;;;;;5087964;28;20622;-71
2023/06/15 10:12:05;;;;;;;6.95;4.00;;;;;;;;;;5075670;28;20044;-70
2023/06/15 10:15:48;;;;;;;6.10;3.85;;;;;;;;;;5076883;28;20040;-72
2023/06/15 10:19:26;;;;;;;5.47;3.65;;;;;;;;;;5083911;28;20151;-70
2023/06/15 10:23:07;;;;;;;9.18;3.60;;;;;;;;;;5083990;28;20130;-71
2023/06/15 10:26:47;;;;;;;6.25;3.60;;;;;;;;;;5084193;28;20051;-71
2023/06/15 10:29:54;;;;;;;4.60;3.50;;;;;;;;;;5080484;28;20056;-72
2023/06/15 10:33:43;;;;;;;4.00;2.83;;;;;;;;;;5079361;28;20055;-72
2023/06/15 10:37:23;;;;;;;11.63;4.22;;;;;;;;;;5086850;28;20399;-73
2023/06/15 10:41:05;;;;;;;11.15;5.20;;;;;;;;;;5081163;28;20097;-72
2023/06/15 10:44:47;;;;;;;12.27;5.07;;;;;;;;;;5085623;28;20067;-73
2023/06/15 10:48:28;;;;;;;8.23;3.63;;;;;;;;;;5082907;28;20680;-74
2023/06/15 10:52:11;;;;;;;7.00;4.05;;;;;;;;;;5091565;28;21290;-73
2023/06/15 10:55:51;;;;;;;6.22;3.60;;;;;;;;;;5085582;28;20176;-71
2023/06/15 10:59:18;;;;;;;7.28;3.50;;;;;;;;;;5082467;28;20038;-73
2023/06/15 11:02:27;;;;;;;15.63;4.65;;;;;;;;;;5086567;28;20044;-73
2023/06/15 11:06:10;;;;;;;7.88;3.60;;;;;;;;;;5078735;28;20094;-72
2023/06/15 11:09:51;;;;;;;6.53;3.25;;;;;;;;;;5082033;28;20051;-72
2023/06/15 11:13:32;;;;;;;13.68;3.78;;;;;;;;;;5083013;28;20044;-73
2023/06/15 11:17:23;;;;;;;6.10;3.53;;;;;;;;;;5083433;28;20048;-73
2023/06/15 11:20:54;;;;;;;11.48;3.97;;;;;;;;;;5088327;28;20051;-72
2023/06/15 11:24:34;;;;;;;8.23;4.57;;;;;;;;;;5084711;28;20076;-72
2023/06/15 11:28:21;;;;;;;6.03;3.53;;;;;;;;;;5085790;28;20309;-71
2023/06/15 11:31:55;;;;;;;4.57;3.95;;;;;;;;;;5082140;28;20047;-72
2023/06/15 11:35:36;;;;;;;4.70;3.58;;;;;;;;;;5085614;28;20044;-72
2023/06/15 11:38:37;;;;;;;6.72;3.80;;;;;;;;;;5085370;28;20054;-74
2023/06/15 11:41:09;;;;;;;7.75;3.42;;;;;;;;;;5087694;28;20055;-71
2023/06/15 11:43:53;;;;;;;4.70;3.25;;;;;;;;;;5090834;28;20056;-72
2023/06/15 11:46:22;;;;;;;5.90;3.33;;;;;;;;;;5084914;28;20040;-72
2023/06/15 11:48:54;;;;;;;7.88;3.72;;;;;;;;;;5080208;28;20076;-71
2023/06/15 11:51:20;;;;;;;7.50;3.90;;;;;;;;;;5085524;28;20036;-73
2023/06/15 11:53:46;;;;;;;5.55;3.65;;;;;;;;;;5076313;28;20500;-72
2023/06/15 11:56:15;;;;;;;7.95;4.55;;;;;;;;;;5086608;28;20052;-77
2023/06/15 11:58:46;;;;;;;10.43;5.75;;;;;;;;;;5088089;28;20059;-71
2023/06/15 12:01:14;;;;;;;5.65;3.50;;;;;;;;;;5084811;28;20040;-72
2023/06/15 12:03:47;;;;;;;8.55;5.00;;;;;;;;;;5083133;28;20075;-73
2023/06/15 12:06:17;;;;;;;9.35;4.35;;;;;;;;;;5082333;28;20053;-73
2023/06/15 12:08:46;;;;;;;7.80;4.18;;;;;;;;;;5085532;28;20064;-74
2023/06/15 12:11:12;;;;;;;7.05;3.70;;;;;;;;;;5086874;28;20052;-74
2023/06/15 12:13:40;;;;;;;5.47;3.22;;;;;;;;;;5083015;28;20094;-72
2023/06/15 12:16:07;;;;;;;7.82;4.20;;;;;;;;;;5087958;28;20044;-74
2023/06/15 12:18:34;;;;;;;10.38;4.43;;;;;;;;;;5086210;28;20059;-73
2023/06/15 12:21:05;;;;;;;10.55;5.95;;;;;;;;;;5089428;28;20047;-75
2023/06/15 12:23:32;;;;;;;6.50;3.83;;;;;;;;;;5083444;28;20610;-73
2023/06/15 12:26:03;;;;;;;5.65;3.90;;;;;;;;;;5089226;28;20063;-75
2023/06/15 12:28:32;;;;;;;5.03;3.67;;;;;;;;;;5084249;28;20571;-72
2023/06/15 12:31:10;;;;;;;6.90;3.70;;;;;;;;;;5077707;28;20253;-75
2023/06/15 12:33:40;;;;;;;4.90;3.35;;;;;;;;;;5085292;28;20052;-73
2023/06/15 12:36:12;;;;;;;7.05;3.63;;;;;;;;;;5082317;28;20048;-75
2023/06/15 12:38:39;;;;;;;8.98;3.65;;;;;;;;;;5081497;28;20300;-72
2023/06/15 12:41:12;;;;;;;7.35;3.78;;;;;;;;;;5079574;28;20037;-75
2023/06/15 12:43:41;;;;;;;7.90;3.95;;;;;;;;;;5088057;28;20050;-73
2023/06/15 12:46:07;;;;;;;9.05;4.10;;;;;;;;;;5088211;28;20048;-72
2023/06/15 12:48:36;;;;;;;8.07;3.58;;;;;;;;;;5085496;28;20039;-75
2023/06/15 12:51:03;;;;;;;7.50;3.33;;;;;;;;;;5088169;28;20075;-73
2023/06/15 12:53:30;;;;;;;3.83;3.10;;;;;;;;;;5084000;28;20044;-75
2023/06/15 12:55:56;;;;;;;7.43;3.50;;;;;;;;;;5086227;28;20088;-76
2023/06/15 12:58:23;;;;;;;3.65;2.90;;;;;;;;;;5076754;28;20040;-73
2023/06/15 13:00:50;;;;;;;5.03;3.35;;;;;;;;;;5087646;28;20130;-72
2023/06/15 13:03:16;;;;;;;6.20;3.40;;;;;;;;;;5086210;28;20081;-73
2023/06/15 13:05:42;;;;;;;4.55;3.35;;;;;;;;;;5079633;28;20056;-73
2023/06/15 13:08:11;;;;;;;7.15;3.63;;;;;;;;;;5090101;28;20048;-71
2023/06/15 13:10:37;;;;;;;7.28;2.90;;;;;;;;;;5085791;28;20080;-72
2023/06/15 13:13:05;;;;;;;6.72;3.20;;;;;;;;;;5086344;28;20079;-74
2023/06/15 13:15:31;;;;;;;6.78;3.33;;;;;;;;;;5083421;28;20151;-72
2023/06/15 13:17:58;;;;;;;7.28;3.30;;;;;;;;;;5082077;28;20041;-71
2023/06/15 13:20:24;;;;;;;5.88;3.28;;;;;;;;;;5085593;28;20050;-72
2023/06/15 13:22:51;;;;;;;4.38;2.70;;;;;;;;;;5089759;28;20052;-72
2023/06/15 13:25:19;;;;;;;5.85;3.10;;;;;;;;;;5087774;28;20078;-73
2023/06/15 13:27:45;;;;;;;8.18;3.30;;;;;;;;;;5086148;28;20050;-73
2023/06/15 13:30:13;;;;;;;6.32;3.15;;;;;;;;;;5085749;28;20051;-71
2023/06/15 13:32:42;;;;;;;7.18;2.92;;;;;;;;;;5083527;28;20408;-79
2023/06/15 13:35:10;;;;;;;7.30;3.28;;;;;;;;;;5086899;28;20108;-75
2023/06/15 13:37:37;;;;;;;5.75;3.03;;;;;;;;;;5083979;28;20416;-72
2023/06/15 13:40:06;;;;;;;7.00;2.90;;;;;;;;;;5081949;28;20143;-75
2023/06/15 13:42:37;;;;;;;5.75;3.15;;;;;;;;;;5087913;28;20079;-70
2023/06/15 13:45:09;;;;;;;4.47;3.08;;;;;;;;;;5080749;28;20680;-74
2023/06/15 13:47:37;;;;;;;7.53;3.20;;;;;;;;;;5082082;28;20149;-73
2023/06/15 13:50:04;;;;;;;5.75;2.85;;;;;;;;;;5082753;28;20056;-73
2023/06/15 13:52:30;;;;;;;5.72;3.17;;;;;;;;;;5085735;28;20487;-73
2023/06/15 13:54:58;;;;;;;5.57;3.25;;;;;;;;;;5085887;28;20048;-73
2023/06/15 13:57:25;;;;;;;5.55;3.50;;;;;;;;;;5083649;28;20055;-74
2023/06/15 13:59:51;;;;;;;6.30;3.28;;;;;;;;;;5081165;28;20505;-73
2023/06/15 14:02:18;;;;;;;4.75;2.95;;;;;;;;;;5078583;28;20302;-73
2023/06/15 14:04:46;;;;;;;3.42;2.67;;;;;;;;;;5082111;28;20052;-74
2023/06/15 14:07:14;;;;;;;4.78;3.33;;;;;;;;;;5085251;28;20112;-72
2023/06/15 14:09:42;;;;;;;9.27;4.68;;;;;;;;;;5078518;28;20089;-74
2023/06/15 14:12:10;;;;;;;6.93;3.70;;;;;;;;;;5084701;28;20044;-74
2023/06/15 14:14:39;;;;;;;5.85;2.72;;;;;;;;;;5083201;28;20051;-74
2023/06/15 14:17:05;;;;;;;5.13;3.15;;;;;;;;;;5084027;28;20052;-72
2023/06/15 14:19:31;;;;;;;3.80;3.10;;;;;;;;;;5086193;28;20052;-74
2023/06/15 14:21:57;;;;;;;6.88;3.38;;;;;;;;;;5091668;28;20044;-74
2023/06/15 14:24:23;;;;;;;8.63;4.30;;;;;;;;;;5096509;28;20378;-73
2023/06/15 14:26:49;;;;;;;6.72;3.45;;;;;;;;;;5087282;28;20113;-72
2023/06/15 14:29:16;;;;;;;10.25;4.25;;;;;;;;;;5088419;28;20101;-72
2023/06/15 14:31:45;;;;;;;6.28;3.35;;;;;;;;;;5088015;28;20036;-73
2023/06/15 14:34:21;;;;;;;4.78;3.40;;;;;;;;;;5080707;28;20056;-74
2023/06/15 14:36:50;;;;;;;7.55;3.38;;;;;;;;;;5087335;28;20047;-73
2023/06/15 14:39:20;;;;;;;7.97;3.28;;;;;;;;;;5089822;28;20070;-75
2023/06/15 14:41:47;;;;;;;5.70;2.90;;;;;;;;;;5084278;28;20044;-74
2023/06/15 14:44:13;;;;;;;5.07;3.10;;;;;;;;;;5085285;28;20081;-76
2023/06/15 14:46:41;;;;;;;10.98;2.83;;;;;;;;;;5088466;28;20049;-72
2023/06/15 14:49:09;;;;;;;4.38;3.08;;;;;;;;;;5090525;28;20592;-73
2023/06/15 14:51:56;;;;;;;7.50;3.05;;;;;;;;;;5088126;28;20048;-72
2023/06/15 14:54:22;;;;;;;6.88;3.20;;;;;;;;;;5088204;28;20070;-78
2023/06/15 14:57:01;;;;;;;7.22;3.08;;;;;;;;;;5081130;28;20109;-72
2023/06/15 14:59:27;;;;;;;11.98;3.47;;;;;;;;;;5086198;28;20036;-73
2023/06/15 15:01:53;;;;;;;6.22;2.70;;;;;;;;;;5085610;28;20062;-70
2023/06/15 15:04:19;;;;;;;8.07;3.58;;;;;;;;;;5081908;28;20128;-77
2023/06/15 15:06:46;;;;;;;6.72;2.97;;;;;;;;;;5086483;28;20126;-70
2023/06/15 15:09:12;;;;;;;6.70;3.53;;;;;;;;;;5086761;28;20047;-71
2023/06/15 15:11:38;;;;;;;5.90;3.63;;;;;;;;;;5087098;28;20071;-69
2023/06/15 15:14:04;;;;;;;5.95;2.90;;;;;;;;;;5080417;28;20245;-70
2023/06/15 15:16:31;;;;;;;10.23;3.25;;;;;;;;;;5086772;28;20719;-72
2023/06/15 15:18:57;;;;;;;11.13;3.33;;;;;;;;;;5087553;28;20044;-70
2023/06/15 15:21:23;;;;;;;6.90;3.30;;;;;;;;;;5083849;28;20040;-70
2023/06/15 15:23:50;;;;;;;6.82;3.05;;;;;;;;;;5087339;28;21203;-72
2023/06/15 15:26:16;;;;;;;5.03;3.10;;;;;;;;;;5081120;28;20047;-70
2023/06/15 15:28:42;;;;;;;6.95;3.15;;;;;;;;;;5084795;28;20059;-70
2023/06/15 15:31:08;;;;;;;7.65;3.60;;;;;;;;;;5083289;28;20136;-73
2023/06/15 15:33:35;;;;;;;5.28;2.90;;;;;;;;;;5085655;28;20040;-75
2023/06/15 15:36:01;;;;;;;5.50;2.90;;;;;;;;;;5083558;28;20051;-75
2023/06/15 15:38:27;;;;;;;6.15;3.30;;;;;;;;;;5083540;28;20070;-76
2023/06/15 15:40:53;;;;;;;8.88;3.28;;;;;;;;;;5083626;28;20047;-75
2023/06/15 15:43:22;;;;;;;9.77;3.35;;;;;;;;;;5080812;28;20035;-81
2023/06/15 15:45:49;;;;;;;5.97;2.95;;;;;;;;;;5080390;28;20110;-77
2023/06/15 15:48:15;;;;;;;11.63;3.40;;;;;;;;;;5081846;28;20043;-78
2023/06/15 15:50:41;;;;;;;5.90;3.33;;;;;;;;;;5077239;28;20056;-73
2023/06/15 15:53:07;;;;;;;7.43;3.22;;;;;;;;;;5084653;28;20491;-76
2023/06/15 15:55:34;;;;;;;9.27;3.25;;;;;;;;;;5081740;28;20040;-73
2023/06/15 15:58:00;;;;;;;8.68;3.80;;;;;;;;;;5081502;28;20047;-74
2023/06/15 16:00:27;;;;;;;6.97;3.20;;;;;;;;;;5086873;28;20426;-76
2023/06/15 16:02:53;;;;;;;9.70;3.08;;;;;;;;;;5079772;28;20040;-75
2023/06/15 16:05:19;;;;;;;9.20;3.13;;;;;;;;;;5090162;28;20040;-74
2023/06/15 16:07:45;;;;;;;7.40;3.20;;;;;;;;;;5090310;28;20063;-74
2023/06/15 16:10:12;;;;;;;6.90;3.42;;;;;;;;;;5080598;28;20068;-73
2023/06/15 16:12:39;;;;;;;9.32;3.58;;;;;;;;;;5081756;28;20044;-76
2023/06/15 16:15:07;;;;;;;7.45;3.88;;;;;;;;;;5088913;28;20457;-73
2023/06/15 16:17:33;;;;;;;7.15;3.17;;;;;;;;;;5088877;28;20253;-74
2023/06/15 16:19:59;;;;;;;10.77;3.70;;;;;;;;;;5083565;28;20071;-75
2023/06/15 16:22:28;;;;;;;10.35;3.72;;;;;;;;;;5087793;28;20383;-73
2023/06/15 16:24:54;;;;;;;11.52;3.78;;;;;;;;;;5079953;28;20052;-75
2023/06/15 16:27:20;;;;;;;7.15;3.58;;;;;;;;;;5086258;28;24160;-74
2023/06/15 16:29:46;;;;;;;8.50;3.15;;;;;;;;;;5088164;28;20055;-74
2023/06/15 16:32:12;;;;;;;5.38;2.97;;;;;;;;;;5084120;28;20048;-75
2023/06/15 16:34:41;;;;;;;11.68;3.65;;;;;;;;;;5084011;28;20071;-74
2023/06/15 16:37:07;;;;;;;9.43;3.60;;;;;;;;;;5084114;28;20070;-75
2023/06/15 16:39:55;;;;;;;6.15;3.00;;;;;;;;;;5088326;28;20047;-74
2023/06/15 16:42:26;;;;;;;6.10;3.00;;;;;;;;;;5085267;28;20138;-74
2023/06/15 16:44:57;;;;;;;6.78;3.20;;;;;;;;;;5088071;28;20519;-76
2023/06/15 16:47:25;;;;;;;7.97;2.92;;;;;;;;;;5091037;28;20044;-75
2023/06/15 16:49:51;;;;;;;8.48;2.80;;;;;;;;;;5090109;28;20040;-72
2023/06/15 16:52:19;;;;;;;11.82;3.10;;;;;;;;;;5083206;28;20061;-75
2023/06/15 16:54:46;;;;;;;8.13;3.25;;;;;;;;;;5103678;28;20044;-74
2023/06/15 16:57:15;;;;;;;7.88;3.08;;;;;;;;;;5087814;28;20063;-76
2023/06/15 16:59:42;;;;;;;9.73;2.85;;;;;;;;;;5089284;28;20040;-74
2023/06/15 17:02:10;;;;;;;6.97;3.10;;;;;;;;;;5086430;28;20048;-80
2023/06/15 17:04:36;;;;;;;7.65;2.90;;;;;;;;;;5097242;28;20078;-81
2023/06/15 17:07:05;;;;;;;9.40;3.03;;;;;;;;;;5090300;28;20146;-80
2023/06/15 17:09:40;;;;;;;11.63;3.30;;;;;;;;;;5089098;28;20084;-79
2023/06/15 17:12:06;;;;;;;7.03;2.60;;;;;;;;;;5084222;28;20237;-75
2023/06/15 17:14:32;;;;;;;9.95;2.92;;;;;;;;;;5092473;28;20082;-78
2023/06/15 17:17:03;;;;;;;13.13;3.08;;;;;;;;;;5090780;28;20055;-81
2023/06/15 17:19:31;;;;;;;7.13;2.55;;;;;;;;;;5080055;28;20047;-73
2023/06/15 17:21:57;;;;;;;8.88;2.67;;;;;;;;;;5088172;28;20164;-75
2023/06/15 17:24:23;;;;;;;8.18;3.75;;;;;;;;;;5100575;27;20189;-74
2023/06/15 17:26:50;;;;;;;7.75;2.80;;;;;;;;;;5081008;28;20097;-76
2023/06/15 17:29:19;;;;;;;9.30;3.00;;;;;;;;;;5082569;28;20174;-75
2023/06/15 17:31:52;;;;;;;7.55;2.72;;;;;;;;;;5086928;28;20070;-76
2023/06/15 17:34:20;;;;;;;8.27;3.20;;;;;;;;;;5082552;28;20492;-75
2023/06/15 17:36:53;;;;;;;8.95;3.00;;;;;;;;;;5084688;28;20495;-76
2023/06/15 17:39:21;;;;;;;8.05;2.92;;;;;;;;;;5088374;28;20036;-75
2023/06/15 17:41:48;;;;;;;9.00;2.70;;;;;;;;;;5085459;28;20070;-72
2023/06/15 17:44:13;;;;;;;8.68;2.78;;;;;;;;;;5086741;28;20043;-72
2023/06/15 17:46:40;;;;;;;6.32;2.50;;;;;;;;;;5082023;28;20047;-74
2023/06/15 17:49:06;;;;;;;11.82;2.65;;;;;;;;;;5086951;28;20502;-73
2023/06/15 17:51:34;;;;;;;6.20;2.47;;;;;;;;;;5088077;28;20047;-76
2023/06/15 17:54:00;;;;;;;7.32;2.80;;;;;;;;;;5081123;28;20123;-73
2023/06/15 17:56:27;;;;;;;11.45;2.92;;;;;;;;;;5083983;28;20067;-74
2023/06/15 17:58:54;;;;;;;9.70;2.80;;;;;;;;;;5082492;28;20058;-75
2023/06/15 18:01:20;;;;;;;7.93;3.05;;;;;;;;;;5084664;28;20173;-78
2023/06/15 18:03:46;;;;;;;8.02;2.90;;;;;;;;;;5077397;28;20048;-74
2023/06/15 18:06:13;;;;;;;12.65;5.03;;;;;;;;;;5084372;28;20048;-74
2023/06/15 18:08:40;;;;;;;14.18;2.97;;;;;;;;;;5080580;28;20121;-74
2023/06/15 18:11:10;;;;;;;8.75;3.08;;;;;;;;;;5094658;28;20066;-72
2023/06/15 18:13:37;;;;;;;7.25;3.20;;;;;;;;;;5075110;28;20082;-76